x

Mid Gulf - 180 Nm South Of Southwest Pass, La (42001) Wave Buoy

11:50pm - Sat 4th Jul 2015 All times are UTC.

  • Sig Wave height 2.0ft
  • Peak Period 7s
  • Average Period 5s
  • Wind
    4mph, 7mph gusts
  • Sea Temp 86°f
  • Air Temp 84°f
  • Sea Pressure 1017.6mb

More Historic Weather Station data

Upgrade to MSW Pro to gain access to the past 30 days of data for over 8000 Wavebouys and Weather Stations around the globe.

Join Pro

Comparision Forecast

View Surf forecast
   
Sat 07/04 11:50pm 2ft 7s 5s 4 7 mph 1017.6mb 86f 84f
10:50pm 2ft 8s 4s 4 7 mph 1017.4mb 86f 85f
9:50pm 2ft 7s 4s 7
mph
1017.8mb 86f 85f
8:50pm 2ft 5s  -  7 9 mph 1017.9mb 86f 84f
7:50pm 2ft 7s 4s 9
mph
1018.1mb 86f 84f
6:50pm 2.5ft 6s 4s 7 9 mph 1018.6mb 86f 84f
5:50pm 2ft 7s 4s 7 9 mph 1019.1mb 86f 84f
4:50pm 2.5ft 6s 4s 9 11 mph 1019.4mb 85f 84f
3:50pm 2.5ft 7s 4s 11 13 mph 1019.3mb 85f 84f
2:50pm 2.5ft 8s 4s 9 11 mph 1019mb 85f 84f
1:50pm 2.5ft 4s 4s 11 13 mph 1018.5mb 85f 84f
12:50pm 2.5ft 4s 4s 13 16 mph 1018mb 85f 84f
11:50am 2.5ft 8s 4s 13 16 mph 1017.8mb 85f 83f
10:50am 2.5ft 4s 4s 16 18 mph 1017.3mb 85f 83f
9:50am 2.5ft 3s 4s 13 16 mph 1017.1mb 85f 83f
8:50am 2.5ft 7s 4s 16 18 mph 1017mb 85f 84f
7:50am 2.5ft 5s 4s 16 20 mph 1017.2mb 85f 84f
6:50am 2ft 5s 4s 16 18 mph 1017.5mb 85f 84f
5:50am 2ft 7s 4s 13 16 mph 1017.9mb 85f 84f
4:50am 2ft 7s 4s 13 16 mph 1017.9mb 85f 84f
3:50am 2ft 7s 5s 13
mph
1018.1mb 85f 84f
2:50am 2ft 8s 5s 11 13 mph 1017.7mb 85f 84f
1:50am 2.5ft 5s 5s 9 11 mph 1017.3mb 85f 84f
12:50am 2ft 7s 5s 9 11 mph 1017mb 86f 84f
Fri 07/03 11:50pm 2.5ft 5s 5s 9
mph
1017mb 86f 84f
10:50pm 2ft 6s 4s 4 7 mph 1017.2mb 86f 84f
9:50pm 2.5ft 5s 5s 4 7 mph 1017.3mb 86f 84f
8:50pm 2.5ft 5s 4s 4 9 mph 1017.6mb 86f 84f
7:50pm 2.5ft 5s 4s 7 9 mph 1018mb 86f 84f
6:50pm 2.5ft 7s 4s 9 11 mph 1018.4mb 85f 84f
5:50pm 2.5ft 5s 4s 9 11 mph 1018.8mb 85f 84f
4:50pm 2.5ft 5s 4s 13 16 mph 1018.5mb 85f 84f
3:50pm 2.5ft 5s 4s 13 16 mph 1018.4mb 85f 84f
2:50pm 2.5ft 7s 4s 13 16 mph 1018.2mb 85f 84f
1:50pm 3ft 7s 4s 9 11 mph 1018.1mb 85f 84f
12:50pm 3ft 5s 4s 11 13 mph 1018mb 85f 84f
11:50am 3ft 7s 4s 13 16 mph 1017.4mb 85f 83f
10:50am 3ft 5s 4s 13 16 mph 1017mb 85f 83f
9:50am 3.5ft 4s 4s 11 13 mph 1016.8mb 85f 83f
8:50am 3ft 4s 4s 13 18 mph 1016.6mb 85f 83f
7:50am 3.5ft 4s 4s 13 16 mph 1016.8mb 85f 83f
6:50am 3ft 4s 4s 18 20 mph 1016.8mb 85f 84f
5:50am 3ft 7s 4s 18 20 mph 1017.5mb 85f 84f
4:50am 2.5ft 4s 4s 18 20 mph 1018mb 85f 84f
3:50am 2.5ft 6s 4s 18 20 mph 1017.8mb 85f 84f
2:50am 2.5ft 4s 4s 16 18 mph 1017.5mb 85f 84f
1:50am 2.5ft 5s 4s 16 18 mph 1017mb 85f 85f
12:50am 2.5ft 4s 4s 13 16 mph 1016.9mb 85f 85f
Thu 07/02 11:50pm 2.5ft 5s 4s 13 18 mph 1017mb 85f 85f
10:50pm 2.5ft 4s 4s 16 18 mph 1017mb 85f 85f
9:50pm 2.5ft 4s 4s 16 18 mph 1017.4mb 85f 85f
8:50pm 2.5ft 4s 4s 18 20 mph 1017.8mb 85f 85f
7:50pm 2.5ft 4s 4s 16 18 mph 1018.1mb 85f 85f
6:50pm 2.5ft 4s 4s 16 18 mph 1018.6mb 85f 85f
5:50pm 2.5ft 4s 4s 16 20 mph 1019.2mb 85f 85f
4:50pm 2.5ft 3s 4s 16 20 mph 1019.4mb 85f 85f
3:50pm 2.5ft 4s 4s 16 18 mph 1019.1mb 85f 85f
2:50pm 2ft 4s 4s 16 18 mph 1018.9mb 85f 85f
1:50pm 2ft 4s 4s 13 16 mph 1019.1mb 85f 85f
12:50pm 2ft 4s 4s 13 16 mph 1018.9mb 85f 84f
11:50am 2ft 4s 3s 13 16 mph 1018mb 85f 84f
10:50am 2ft 4s 4s 13 16 mph 1017.3mb 85f 84f
9:50am 2ft 3s 4s 11 16 mph 1017.5mb 85f 84f
8:50am 1.6ft 4s 4s 11 13 mph 1017.6mb 85f 84f
7:50am 1.6ft 3s 4s 9 11 mph 1018mb 85f 84f
6:50am 2ft 4s 4s 9 11 mph 1018.8mb 85f 84f
5:50am 2ft 3s 4s 11
mph
1019.3mb 85f 84f
4:50am 2ft 5s 4s 11 16 mph 1019.9mb 85f 85f
3:50am 1.6ft 5s 4s 11 13 mph 1020.1mb 85f 85f
2:50am 1.6ft 6s 4s 11 13 mph 1019.3mb 85f 85f
1:50am 1.6ft 6s 4s 9 11 mph 1018.7mb 85f 84f
12:50am 1.6ft 6s 4s 9 11 mph 1018.3mb 85f 84f
Wed 07/01 11:50pm 2ft 6s 4s 9 11 mph 1018mb 85f 84f
10:50pm 2ft 5s 4s 9 11 mph 1018mb 85f 85f
9:50pm 2ft 5s 4s 11 13 mph 1018.5mb 86f 85f
8:50pm 2ft 5s 4s 9 11 mph 1019mb 86f 85f
7:50pm 2ft 5s 4s 9 11 mph 1019.4mb 86f 85f
6:50pm 2ft 3s 4s 13 16 mph 1019.7mb 86f 85f
5:50pm 2ft 3s 4s 11
mph
1020.7mb 86f 85f
4:50pm 2.5ft 3s 4s 11 13 mph 1020.8mb 85f 85f
3:50pm 2.5ft 4s 3s 16 18 mph 1020.4mb 85f 85f
2:50pm 2.5ft 3s 3s 16 18 mph 1020mb 85f 84f
1:50pm 2.5ft 3s 3s 16 18 mph 1019.6mb 85f 84f
12:50pm 2ft 3s 3s 16 20 mph 1019.1mb 85f 84f
11:50am 2ft 4s 3s 16 18 mph 1018.7mb 85f 84f
10:50am 2ft 3s 3s 16 18 mph 1018.7mb 85f 84f
9:50am 2ft 3s 3s 13 16 mph 1019mb 85f 84f
8:50am 1.6ft 3s 3s 13 16 mph 1019.1mb 85f 84f
7:50am 2ft 4s 4s 13 16 mph 1019.4mb 86f 84f
6:50am 1.6ft 5s 4s 11 13 mph 1019.8mb 86f 84f
5:50am 2ft 6s 4s 11 16 mph 1020.4mb 86f 85f
4:50am 1.6ft 5s 4s 13
mph
1020.5mb 86f 85f
3:50am 1.6ft 5s 4s 11 13 mph 1020.1mb 86f 85f
2:50am 1.6ft 6s 4s 11 13 mph 1019.7mb 86f 85f
1:50am 1.6ft 5s 4s 9 11 mph 1019.2mb 86f 85f